createdAt,value
2018-07-19T00:01:31.024Z,101265.91
2018-07-19T00:04:01.209Z,101265.97
2018-07-19T00:06:31.484Z,101266.80
2018-07-19T00:09:01.662Z,101276.17
2018-07-19T00:11:31.860Z,101271.05
2018-07-19T00:14:02.053Z,101278.53
2018-07-19T00:16:38.298Z,101280.85
2018-07-19T00:19:08.464Z,101280.58
2018-07-19T00:21:38.760Z,101279.59
2018-07-19T00:24:09.034Z,101285.52
2018-07-19T00:26:39.355Z,101282.87
2018-07-19T00:29:10.092Z,101285.78
2018-07-19T00:31:40.352Z,101287.30
2018-07-19T00:34:10.626Z,101282.44
2018-07-19T00:36:42.247Z,101280.34
2018-07-19T00:39:12.514Z,101285.52
2018-07-19T00:41:45.718Z,101286.41
2018-07-19T00:44:17.219Z,101284.41
2018-07-19T00:46:49.556Z,101288.11
2018-07-19T00:49:20.490Z,101277.77
2018-07-19T00:51:51.927Z,101276.89
2018-07-19T00:54:22.122Z,101276.40
2018-07-19T00:56:52.338Z,101278.07
2018-07-19T00:59:22.870Z,101274.45
2018-07-19T01:01:53.022Z,101277.38
2018-07-19T01:04:23.234Z,101278.39
2018-07-19T01:06:53.554Z,101276.95
2018-07-19T01:09:23.750Z,101280.08
2018-07-19T01:11:53.965Z,101284.18
2018-07-19T01:14:24.141Z,101275.94
2018-07-19T01:16:54.352Z,101277.27
2018-07-19T01:19:24.454Z,101278.21
2018-07-19T01:21:54.681Z,101273.02
2018-07-19T01:24:24.901Z,101281.63
2018-07-19T01:26:55.029Z,101290.17
2018-07-19T01:29:25.181Z,101282.02
2018-07-19T01:31:55.407Z,101276.27
2018-07-19T01:34:25.527Z,101282.95
2018-07-19T01:36:55.700Z,101285.36
2018-07-19T01:39:25.800Z,101280.64
2018-07-19T01:42:38.507Z,101280.05
2018-07-19T01:45:10.188Z,101283.91
2018-07-19T01:47:41.242Z,101280.97
2018-07-19T01:50:12.059Z,101279.08
2018-07-19T01:52:42.218Z,101277.95
2018-07-19T01:55:12.406Z,101279.02
2018-07-19T01:57:42.147Z,101276.52
2018-07-19T02:00:12.345Z,101275.62
2018-07-19T02:02:42.504Z,101283.77
2018-07-19T02:05:12.767Z,101276.40
2018-07-19T02:07:42.962Z,101284.55
2018-07-19T02:10:13.177Z,101287.11
2018-07-19T02:12:43.381Z,101282.55
2018-07-19T02:15:13.570Z,101276.53
2018-07-19T02:17:43.818Z,101276.45
2018-07-19T02:20:13.973Z,101284.63
2018-07-19T02:22:44.190Z,101284.04
2018-07-19T02:25:14.341Z,101282.50
2018-07-19T02:27:44.577Z,101284.20
2018-07-19T02:30:14.706Z,101276.87
2018-07-19T02:32:45.147Z,101274.56
2018-07-19T02:35:15.299Z,101270.98
2018-07-19T02:37:45.488Z,101268.98
2018-07-19T02:40:15.677Z,101274.54
2018-07-19T02:42:45.833Z,101269.83
2018-07-19T02:45:15.959Z,101269.14
2018-07-19T02:47:46.168Z,101268.13
2018-07-19T02:50:16.311Z,101267.59
2018-07-19T02:52:46.483Z,101271.52
2018-07-19T02:55:16.664Z,101270.35
2018-07-19T02:57:46.871Z,101267.64
2018-07-19T03:00:17.044Z,101269.73
2018-07-19T03:02:47.233Z,101267.41
2018-07-19T03:05:17.342Z,101267.34
2018-07-19T03:07:47.569Z,101271.81
2018-07-19T03:10:17.626Z,101271.27
2018-07-19T03:12:47.772Z,101275.17
2018-07-19T03:15:17.913Z,101262.74
2018-07-19T03:17:48.107Z,101271.31
2018-07-19T03:20:18.281Z,101269.76
2018-07-19T03:22:48.451Z,101269.67
2018-07-19T03:25:18.598Z,101270.72
2018-07-19T03:27:48.719Z,101269.80
2018-07-19T03:30:18.886Z,101266.16
2018-07-19T03:32:49.114Z,101265.03
2018-07-19T03:35:19.229Z,101265.31
2018-07-19T03:37:49.397Z,101269.68
2018-07-19T03:40:19.563Z,101267.77
2018-07-19T03:42:49.805Z,101268.84
2018-07-19T03:45:20.056Z,101270.94
2018-07-19T03:47:50.297Z,101275.80
2018-07-19T03:50:20.539Z,101276.14
2018-07-19T03:52:50.795Z,101284.06
2018-07-19T03:55:21.067Z,101284.73
2018-07-19T03:57:51.532Z,101278.07
2018-07-19T04:00:21.660Z,101274.92
2018-07-19T04:02:51.833Z,101275.88
2018-07-19T04:05:21.990Z,101279.31
2018-07-19T04:07:52.450Z,101279.61
2018-07-19T04:10:22.716Z,101281.39
2018-07-19T04:12:53.094Z,101281.59
2018-07-19T04:15:23.364Z,101288.73
2018-07-19T04:17:57.549Z,101284.83
2018-07-19T04:20:28.903Z,101278.53
2018-07-19T04:22:59.168Z,101286.92
2018-07-19T04:25:29.467Z,101287.86
2018-07-19T04:27:59.634Z,101285.09
2018-07-19T04:30:29.730Z,101284.16
2018-07-19T04:32:59.902Z,101289.43
2018-07-19T04:35:30.067Z,101286.94
2018-07-19T04:38:00.202Z,101285.35
2018-07-19T04:40:30.389Z,101282.78
2018-07-19T04:43:00.531Z,101285.75
2018-07-19T04:45:30.695Z,101287.08
2018-07-19T04:48:00.887Z,101277.53
2018-07-19T04:50:31.055Z,101275.39
2018-07-19T04:53:01.205Z,101277.22
2018-07-19T04:55:31.390Z,101279.40
2018-07-19T04:58:01.577Z,101284.91
2018-07-19T05:00:31.773Z,101277.06
2018-07-19T05:03:01.979Z,101289.39
2018-07-19T05:05:32.381Z,101284.43
2018-07-19T05:08:02.522Z,101287.65
2018-07-19T05:10:32.630Z,101294.66
2018-07-19T05:13:03.051Z,101291.19
2018-07-19T05:15:33.402Z,101289.73
2018-07-19T05:18:03.578Z,101287.66
2018-07-19T05:20:34.371Z,101284.95
2018-07-19T05:23:04.667Z,101294.48
2018-07-19T05:25:34.953Z,101286.52
2018-07-19T05:28:05.232Z,101292.86
2018-07-19T05:30:35.414Z,101288.09
2018-07-19T05:33:05.639Z,101286.03
2018-07-19T05:35:35.864Z,101288.55
2018-07-19T05:38:06.063Z,101285.46
2018-07-19T05:40:36.251Z,101281.03
2018-07-19T05:43:06.392Z,101281.30
2018-07-19T05:45:36.600Z,101283.63
2018-07-19T05:48:06.812Z,101290.27
2018-07-19T05:50:37.304Z,101294.55
2018-07-19T05:53:07.639Z,101289.70
2018-07-19T05:55:37.792Z,101289.36
2018-07-19T05:58:08.125Z,101290.91
2018-07-19T06:00:38.232Z,101282.76
2018-07-19T06:03:08.466Z,101286.27
2018-07-19T06:05:38.712Z,101287.41
2018-07-19T06:08:08.907Z,101292.19
2018-07-19T06:10:39.084Z,101279.68
2018-07-19T06:13:09.413Z,101282.86
2018-07-19T06:15:39.592Z,101289.44
2018-07-19T06:18:09.857Z,101286.36
2018-07-19T06:20:40.061Z,101283.97
2018-07-19T06:23:10.309Z,101290.95
2018-07-19T06:25:40.547Z,101288.02
2018-07-19T06:28:10.765Z,101284.05
2018-07-19T06:30:40.759Z,101281.26
2018-07-19T06:33:11.181Z,101283.84
2018-07-19T06:35:41.301Z,101285.16
2018-07-19T06:38:11.527Z,101288.94
2018-07-19T06:40:41.267Z,101291.05
2018-07-19T06:43:11.722Z,101296.05
2018-07-19T06:45:42.224Z,101289.20
2018-07-19T06:48:12.404Z,101292.41
2018-07-19T06:50:42.601Z,101293.43
2018-07-19T06:53:12.777Z,101292.37
2018-07-19T06:55:43.022Z,101295.28
2018-07-19T06:58:12.909Z,101292.69
2018-07-19T07:00:43.067Z,101282.41
2018-07-19T07:03:13.448Z,101285.55
2018-07-19T07:05:43.617Z,101294.28
2018-07-19T07:08:13.913Z,101293.20
2018-07-19T07:10:49.533Z,101297.87
2018-07-19T07:13:19.737Z,101294.37
2018-07-19T07:15:50.049Z,101293.30
2018-07-19T07:18:20.246Z,101286.67
2018-07-19T07:20:54.208Z,101288.39
2018-07-19T07:23:24.489Z,101296.77
2018-07-19T07:25:55.734Z,101287.66
2018-07-19T07:28:27.489Z,101283.81
2018-07-19T07:30:57.646Z,101289.12
2018-07-19T07:33:27.845Z,101291.65
2018-07-19T07:35:58.130Z,101295.11
2018-07-19T07:38:28.312Z,101291.66
2018-07-19T07:40:58.608Z,101288.39
2018-07-19T07:43:28.884Z,101297.55
2018-07-19T07:45:59.010Z,101296.98
2018-07-19T07:48:32.503Z,101296.47
2018-07-19T07:51:02.637Z,101289.95
2018-07-19T07:53:32.872Z,101292.36
2018-07-19T07:56:03.298Z,101297.84
2018-07-19T07:58:33.554Z,101293.56
2018-07-19T08:01:03.761Z,101297.34
2018-07-19T08:03:33.911Z,101302.69
2018-07-19T08:06:04.193Z,101298.34
2018-07-19T08:08:34.643Z,101301.80
2018-07-19T08:11:04.885Z,101297.72
2018-07-19T08:13:35.053Z,101295.73
2018-07-19T08:16:05.281Z,101294.09
2018-07-19T08:18:35.607Z,101299.30
2018-07-19T08:21:05.719Z,101295.24
2018-07-19T08:23:35.924Z,101294.17
2018-07-19T08:26:06.423Z,101293.03
2018-07-19T08:28:36.653Z,101297.84
2018-07-19T08:31:06.785Z,101295.11
2018-07-19T08:33:36.948Z,101295.97
2018-07-19T08:36:07.284Z,101291.75
2018-07-19T08:38:37.609Z,101286.69
2018-07-19T08:41:07.971Z,101282.40
2018-07-19T08:43:45.017Z,101284.13
2018-07-19T08:46:15.356Z,101281.48
2018-07-19T08:48:45.524Z,101282.98
2018-07-19T08:51:15.736Z,101279.56
2018-07-19T08:53:45.897Z,101275.11
2018-07-19T08:58:46.183Z,101268.66
2018-07-19T09:01:16.505Z,101271.26
2018-07-19T09:03:51.957Z,101271.58
2018-07-19T09:06:25.688Z,101268.28
2018-07-19T09:09:01.739Z,101265.44
2018-07-19T09:11:33.496Z,101271.59
2018-07-19T09:14:05.995Z,101267.19
2018-07-19T09:16:36.229Z,101267.91
2018-07-19T09:19:08.995Z,101264.64
2018-07-19T09:21:39.297Z,101258.27
2018-07-19T09:24:09.584Z,101258.32
2018-07-19T09:26:39.791Z,101254.92
2018-07-19T09:29:09.983Z,101257.89
2018-07-19T09:31:40.186Z,101253.67
2018-07-19T09:34:10.397Z,101253.20
2018-07-19T09:36:40.616Z,101243.03
2018-07-19T09:39:12.888Z,101245.17
2018-07-19T09:41:43.880Z,101244.84
2018-07-19T09:44:14.014Z,101249.23
2018-07-19T09:46:44.146Z,101245.23
2018-07-19T09:49:14.370Z,101237.52
2018-07-19T09:51:44.500Z,101243.63
2018-07-19T09:54:30.017Z,101244.02
2018-07-19T09:57:00.136Z,101236.45
2018-07-19T09:59:31.671Z,101234.75
2018-07-19T10:02:01.835Z,101234.33
2018-07-19T10:04:32.048Z,101231.27
2018-07-19T10:07:02.343Z,101233.23
2018-07-19T10:09:32.695Z,101228.92
2018-07-19T10:12:06.909Z,101232.08
2018-07-19T10:14:38.673Z,101232.78
2018-07-19T10:17:08.874Z,101228.36
2018-07-19T10:19:39.192Z,101222.44
2018-07-19T10:22:09.428Z,101233.73
2018-07-19T10:24:39.624Z,101227.87
2018-07-19T10:27:09.840Z,101229.49
2018-07-19T10:29:40.563Z,101225.06
2018-07-19T10:32:11.072Z,101228.66
2018-07-19T10:34:41.155Z,101225.06
2018-07-19T10:37:11.313Z,101216.82
2018-07-19T10:39:41.476Z,101220.88
2018-07-19T10:42:11.966Z,101223.20
2018-07-19T10:44:42.153Z,101224.69
2018-07-19T10:47:12.591Z,101216.26
2018-07-19T10:49:42.751Z,101216.09
2018-07-19T10:52:12.904Z,101212.92
2018-07-19T10:54:43.134Z,101213.33
2018-07-19T10:57:13.303Z,101210.39
2018-07-19T10:59:43.528Z,101209.70
2018-07-19T11:02:13.734Z,101204.93
2018-07-19T11:04:43.971Z,101200.45
2018-07-19T11:07:14.084Z,101204.22
2018-07-19T11:09:44.912Z,101210.78
2018-07-19T11:12:15.041Z,101203.71
2018-07-19T11:14:45.190Z,101200.06
2018-07-19T11:17:15.371Z,101195.41
2018-07-19T11:19:45.492Z,101201.48
2018-07-19T11:22:15.637Z,101200.80
2018-07-19T11:24:45.888Z,101194.68
2018-07-19T11:27:16.062Z,101193.04
2018-07-19T11:29:46.265Z,101194.45
2018-07-19T11:32:16.585Z,101194.98
2018-07-19T11:34:46.955Z,101194.38
2018-07-19T11:37:17.190Z,101192.28
2018-07-19T11:39:47.779Z,101186.42
2018-07-19T11:42:17.873Z,101182.84
2018-07-19T11:44:47.998Z,101183.16
2018-07-19T11:47:18.192Z,101174.55
2018-07-19T11:49:48.394Z,101169.83
2018-07-19T11:52:18.509Z,101177.94
2018-07-19T11:54:48.671Z,101169.47
2018-07-19T11:57:18.896Z,101166.98
2018-07-19T11:59:49.018Z,101172.91
2018-07-19T12:02:19.197Z,101170.52
2018-07-19T12:04:49.382Z,101164.23
2018-07-19T12:07:19.643Z,101162.44
2018-07-19T12:09:49.799Z,101156.41
2018-07-19T12:12:19.928Z,101155.05
2018-07-19T12:14:50.168Z,101151.95
2018-07-19T12:17:20.339Z,101155.87
2018-07-19T12:19:50.578Z,101151.63
2018-07-19T12:22:20.935Z,101150.31
2018-07-19T12:24:51.145Z,101158.48
2018-07-19T12:27:21.308Z,101156.42
2018-07-19T12:29:51.585Z,101147.36
2018-07-19T12:32:23.995Z,101153.14
2018-07-19T12:34:54.275Z,101149.28
2018-07-19T12:37:24.423Z,101138.23
2018-07-19T12:39:54.556Z,101145.73
2018-07-19T12:42:24.795Z,101145.26
2018-07-19T12:44:55.029Z,101143.23
2018-07-19T12:47:25.156Z,101146.46
2018-07-19T12:49:55.292Z,101140.12
2018-07-19T12:52:25.505Z,101139.78
2018-07-19T12:54:55.638Z,101141.64
2018-07-19T12:57:25.756Z,101137.53
2018-07-19T12:59:55.978Z,101130.39
2018-07-19T13:02:26.151Z,101127.17
2018-07-19T13:04:56.664Z,101124.58
2018-07-19T13:07:26.856Z,101129.23
2018-07-19T13:09:57.020Z,101128.67
2018-07-19T13:12:27.161Z,101128.14
2018-07-19T13:14:57.399Z,101125.59
2018-07-19T13:17:27.593Z,101124.85
2018-07-19T13:19:57.793Z,101126.07
2018-07-19T13:22:27.946Z,101123.47
2018-07-19T13:24:57.716Z,101117.80
2018-07-19T13:27:27.957Z,101123.39
2018-07-19T13:29:58.331Z,101118.70
2018-07-19T13:32:28.437Z,101122.21
2018-07-19T13:34:58.680Z,101114.55
2018-07-19T13:37:28.859Z,101108.92
2018-07-19T13:39:59.027Z,101110.55
2018-07-19T13:42:29.166Z,101107.67
2018-07-19T13:45:00.282Z,101103.70
2018-07-19T13:47:30.433Z,101105.66
2018-07-19T13:50:00.598Z,101105.91
2018-07-19T13:52:47.250Z,101106.38
2018-07-19T13:55:17.407Z,101111.73
2018-07-19T13:57:47.544Z,101111.89
2018-07-19T14:00:17.721Z,101106.84
2018-07-19T14:02:47.925Z,101102.41
2018-07-19T14:05:18.358Z,101098.25
2018-07-19T14:07:48.525Z,101100.91
2018-07-19T14:10:18.719Z,101096.71
2018-07-19T14:12:48.875Z,101092.81
2018-07-19T14:15:19.084Z,101094.56
2018-07-19T14:17:49.813Z,101090.84
2018-07-19T14:20:19.631Z,101085.88
2018-07-19T14:22:49.808Z,101084.12
2018-07-19T14:25:20.083Z,101090.00
2018-07-19T14:27:50.360Z,101082.93
2018-07-19T14:30:20.620Z,101084.31
2018-07-19T14:32:50.818Z,101085.44
2018-07-19T14:35:21.024Z,101087.86
2018-07-19T14:37:51.628Z,101082.54
2018-07-19T14:40:22.814Z,101085.34
2018-07-19T14:42:52.998Z,101080.89
2018-07-19T14:45:23.258Z,101070.86
2018-07-19T14:47:53.920Z,101069.70
2018-07-19T14:50:24.254Z,101067.46
2018-07-19T14:52:54.531Z,101066.14
2018-07-19T14:55:24.750Z,101064.47
2018-07-19T14:57:54.960Z,101062.50
2018-07-19T15:00:25.159Z,101053.11
2018-07-19T15:02:55.278Z,101054.50
2018-07-19T15:05:25.485Z,101050.67
2018-07-19T15:07:55.607Z,101045.08
2018-07-19T15:10:28.680Z,101049.14
2018-07-19T15:12:58.885Z,101040.27
2018-07-19T15:15:29.088Z,101041.42
2018-07-19T15:17:59.393Z,101043.74
2018-07-19T15:20:29.545Z,101038.67
2018-07-19T15:23:01.412Z,101041.12
2018-07-19T15:25:32.137Z,101037.56
2018-07-19T15:28:02.405Z,101034.67
2018-07-19T15:30:32.517Z,101030.28
2018-07-19T15:33:02.639Z,101034.70
2018-07-19T15:35:32.793Z,101036.30
2018-07-19T15:38:02.930Z,101028.27
2018-07-19T15:40:33.090Z,101028.15
2018-07-19T15:43:03.267Z,101025.31
2018-07-19T15:45:33.587Z,101021.80
2018-07-19T15:48:03.677Z,101021.51
2018-07-19T15:50:33.855Z,101018.39
2018-07-19T15:53:04.078Z,101021.45
2018-07-19T15:55:34.294Z,101014.55
2018-07-19T15:58:04.546Z,101013.18
2018-07-19T16:00:34.708Z,101011.59
2018-07-19T16:03:04.975Z,101010.33
2018-07-19T16:05:35.112Z,101006.97
2018-07-19T16:08:05.321Z,101004.09
2018-07-19T16:10:35.521Z,100996.81
2018-07-19T16:13:05.788Z,101000.18
2018-07-19T16:15:35.985Z,101000.22
2018-07-19T16:18:06.326Z,101002.67
2018-07-19T16:20:36.607Z,100998.38
2018-07-19T16:23:06.804Z,100992.89
2018-07-19T16:25:36.954Z,100986.45
2018-07-19T16:28:07.083Z,100987.25
2018-07-19T16:30:37.254Z,100984.88
2018-07-19T16:33:07.629Z,100982.42
2018-07-19T16:35:37.861Z,100979.70
2018-07-19T16:38:08.001Z,100972.13
2018-07-19T16:40:38.346Z,100969.83
2018-07-19T16:43:08.470Z,100976.63
2018-07-19T16:45:38.783Z,100972.47
2018-07-19T16:48:08.917Z,100971.72
2018-07-19T16:50:39.128Z,100971.25
2018-07-19T16:53:09.245Z,100966.94
2018-07-19T16:55:39.483Z,100965.66
2018-07-19T16:58:09.658Z,100965.22
2018-07-19T17:00:39.893Z,100962.55
2018-07-19T17:03:10.006Z,100967.39
2018-07-19T17:05:40.168Z,100971.02
2018-07-19T17:08:10.285Z,100971.57
2018-07-19T17:10:40.618Z,100964.20
2018-07-19T17:13:10.776Z,100966.17
2018-07-19T17:15:40.967Z,100970.83
2018-07-19T17:18:11.436Z,100970.41
2018-07-19T17:20:41.567Z,100966.72
2018-07-19T17:23:11.689Z,100967.50
2018-07-19T17:25:41.904Z,100961.94
2018-07-19T17:28:12.023Z,100959.72
2018-07-19T17:30:42.188Z,100959.52
2018-07-19T17:33:12.381Z,100961.48
2018-07-19T17:35:42.618Z,100954.41
2018-07-19T17:38:13.028Z,100957.27
2018-07-19T17:40:43.200Z,100958.98
2018-07-19T17:43:13.314Z,100956.73
2018-07-19T17:45:43.486Z,100954.53
2018-07-19T17:48:16.105Z,100959.45
2018-07-19T17:50:46.293Z,100956.70
2018-07-19T17:53:16.621Z,100952.17
2018-07-19T17:55:46.825Z,100949.09
2018-07-19T17:58:17.098Z,100948.82
2018-07-19T18:00:47.254Z,100950.39
2018-07-19T18:03:17.428Z,100946.27
2018-07-19T18:05:47.554Z,100949.61
2018-07-19T18:08:17.685Z,100951.80
2018-07-19T18:10:47.949Z,100947.61
2018-07-19T18:13:18.072Z,100948.22
2018-07-19T18:15:48.437Z,100949.78
2018-07-19T18:18:18.584Z,100952.20
2018-07-19T18:20:48.785Z,100950.07
2018-07-19T18:23:19.060Z,100954.46
2018-07-19T18:25:49.310Z,100953.00
2018-07-19T18:28:19.596Z,100952.36
2018-07-19T18:30:49.948Z,100954.92
2018-07-19T18:33:20.088Z,100954.91
2018-07-19T18:35:50.435Z,100952.41
2018-07-19T18:38:20.587Z,100949.45
2018-07-19T18:40:51.012Z,100952.53
2018-07-19T18:43:21.385Z,100945.23
2018-07-19T18:45:51.662Z,100952.75
2018-07-19T18:48:21.934Z,100950.40
2018-07-19T18:50:52.249Z,100950.61
2018-07-19T18:53:23.237Z,100948.20
2018-07-19T18:55:53.531Z,100951.13
2018-07-19T18:58:23.692Z,100947.26
2018-07-19T19:00:53.904Z,100949.81
2018-07-19T19:03:24.098Z,100938.52
2018-07-19T19:05:54.315Z,100947.84
2018-07-19T19:08:24.579Z,100950.35
2018-07-19T19:10:54.895Z,100953.73
2018-07-19T19:13:25.087Z,100951.56
2018-07-19T19:15:55.297Z,100945.10
2018-07-19T19:18:25.465Z,100946.97
2018-07-19T19:20:55.810Z,100951.84
2018-07-19T19:23:25.958Z,100952.97
2018-07-19T19:25:56.178Z,100951.23
2018-07-19T19:28:26.548Z,100959.42
2018-07-19T19:30:56.760Z,100960.44
2018-07-19T19:33:27.011Z,100959.78
2018-07-19T19:35:57.237Z,100961.52
2018-07-19T19:38:27.414Z,100967.57
2018-07-19T19:40:57.609Z,100965.83
2018-07-19T19:43:27.729Z,100959.11
2018-07-19T19:45:58.007Z,100967.45
2018-07-19T19:48:28.254Z,100970.15
2018-07-19T19:50:58.480Z,100976.64
2018-07-19T19:53:28.700Z,100979.33
2018-07-19T19:55:58.467Z,100973.95
2018-07-19T19:58:28.757Z,100982.55
2018-07-19T20:00:58.948Z,100983.43
2018-07-19T20:03:29.205Z,100981.77
2018-07-19T20:05:59.465Z,100986.30
2018-07-19T20:08:29.621Z,100987.91
2018-07-19T20:10:59.817Z,100986.94
2018-07-19T20:13:30.135Z,100990.45
2018-07-19T20:16:00.364Z,100996.44
2018-07-19T20:18:30.622Z,101002.73
2018-07-19T20:21:00.761Z,100999.80
2018-07-19T20:23:30.951Z,100998.23
2018-07-19T20:26:01.272Z,100993.81
2018-07-19T20:28:31.453Z,100992.23
2018-07-19T20:31:01.698Z,100992.27
2018-07-19T20:33:31.826Z,100995.91
2018-07-19T20:36:02.261Z,100990.02
2018-07-19T20:38:32.435Z,100998.49
2018-07-19T20:41:02.612Z,100996.96
2018-07-19T20:43:32.797Z,101002.82
2018-07-19T20:46:03.065Z,101005.38
2018-07-19T20:48:33.214Z,101007.83
2018-07-19T20:51:03.383Z,101012.75
2018-07-19T20:53:33.575Z,101011.20
2018-07-19T20:56:03.745Z,101006.03
2018-07-19T20:58:33.863Z,101013.34
2018-07-19T21:01:04.121Z,101015.41
2018-07-19T21:03:34.425Z,101013.98
2018-07-19T21:06:04.599Z,101012.91
2018-07-19T21:08:34.694Z,101016.23
2018-07-19T21:11:04.875Z,101025.30
2018-07-19T21:13:35.007Z,101018.66
2018-07-19T21:16:05.295Z,101017.94
2018-07-19T21:18:35.469Z,101013.28
2018-07-19T21:21:05.699Z,101023.80
2018-07-19T21:23:36.002Z,101022.31
2018-07-19T21:26:06.235Z,101013.52
2018-07-19T21:28:36.359Z,101019.13
2018-07-19T21:31:06.605Z,101026.87
2018-07-19T21:33:36.782Z,101024.53
2018-07-19T21:36:07.143Z,101025.41
2018-07-19T21:38:37.253Z,101031.80
2018-07-19T21:41:07.434Z,101035.48
2018-07-19T21:43:37.580Z,101025.58
2018-07-19T21:46:08.046Z,101024.52
2018-07-19T21:48:38.140Z,101023.17
2018-07-19T21:51:08.285Z,101022.67
2018-07-19T21:53:38.406Z,101017.58
2018-07-19T21:56:08.600Z,101015.44
2018-07-19T21:58:39.732Z,101011.09
2018-07-19T22:01:10.801Z,101014.96
2018-07-19T22:03:41.272Z,101011.03
2018-07-19T22:06:11.407Z,101017.64
2018-07-19T22:08:41.582Z,101020.32
2018-07-19T22:13:40.785Z,101017.11
2018-07-19T22:16:10.964Z,101022.80
2018-07-19T22:18:41.087Z,101025.98
2018-07-19T22:21:11.231Z,101020.04
2018-07-19T22:23:41.350Z,101025.70
2018-07-19T22:26:11.524Z,101019.42
2018-07-19T22:28:41.682Z,101022.03
2018-07-19T22:31:11.863Z,101018.02
2018-07-19T22:33:41.976Z,101018.62
2018-07-19T22:36:12.131Z,101019.56
2018-07-19T22:38:42.225Z,101014.10
2018-07-19T22:41:12.398Z,101020.58
2018-07-19T22:43:42.599Z,101016.05
2018-07-19T22:46:22.690Z,101021.17
2018-07-19T22:48:55.548Z,101017.31
2018-07-19T22:51:26.220Z,101020.84
2018-07-19T22:53:56.458Z,101016.22
2018-07-19T22:56:26.699Z,101022.54
2018-07-19T22:58:56.808Z,101019.91
2018-07-19T23:01:26.972Z,101018.91
2018-07-19T23:03:57.100Z,101021.32
2018-07-19T23:06:27.329Z,101005.96
2018-07-19T23:08:57.454Z,101004.50
2018-07-19T23:11:27.712Z,101010.00
2018-07-19T23:13:57.914Z,101004.43
2018-07-19T23:16:28.048Z,101010.77
2018-07-19T23:18:58.200Z,101008.84
2018-07-19T23:21:28.368Z,101013.23
2018-07-19T23:23:58.457Z,101005.91
2018-07-19T23:26:28.667Z,101006.64
2018-07-19T23:28:58.876Z,101001.77
2018-07-19T23:31:29.133Z,101005.77
2018-07-19T23:33:59.348Z,101001.65
2018-07-19T23:36:35.217Z,101003.35
2018-07-19T23:39:17.096Z,100999.69
2018-07-19T23:42:05.230Z,101000.30
2018-07-19T23:44:40.296Z,100998.59
2018-07-19T23:47:13.949Z,100999.30
2018-07-19T23:49:44.029Z,100997.42
2018-07-19T23:52:14.169Z,100994.21
2018-07-19T23:54:44.307Z,100993.06
2018-07-19T23:57:14.463Z,100991.67
2018-07-19T23:59:44.544Z,100992.86
